sensor_id;sensor_type;location;lat;lon;timestamp;P1;durP1;ratioP1;P2;durP2;ratioP2
34499;SDS011;20745;50.882;6.962;2022-09-27T00:00:05;13.65;;;3.40;;
34499;SDS011;20745;50.882;6.962;2022-09-27T00:02:32;11.02;;;2.42;;
34499;SDS011;20745;50.882;6.962;2022-09-27T00:04:59;8.25;;;2.33;;
34499;SDS011;20745;50.882;6.962;2022-09-27T00:07:25;11.15;;;2.92;;
34499;SDS011;20745;50.882;6.962;2022-09-27T00:09:52;14.07;;;2.58;;
34499;SDS011;20745;50.882;6.962;2022-09-27T00:12:18;8.55;;;2.33;;
34499;SDS011;20745;50.882;6.962;2022-09-27T00:14:45;9.32;;;2.88;;
34499;SDS011;20745;50.882;6.962;2022-09-27T00:17:11;11.65;;;2.75;;
34499;SDS011;20745;50.882;6.962;2022-09-27T00:19:38;15.68;;;3.58;;
34499;SDS011;20745;50.882;6.962;2022-09-27T00:22:04;11.68;;;3.03;;
34499;SDS011;20745;50.882;6.962;2022-09-27T00:24:31;11.00;;;3.17;;
34499;SDS011;20745;50.882;6.962;2022-09-27T00:26:57;13.13;;;3.67;;
34499;SDS011;20745;50.882;6.962;2022-09-27T00:29:24;10.30;;;2.83;;
34499;SDS011;20745;50.882;6.962;2022-09-27T00:31:51;13.73;;;3.13;;
34499;SDS011;20745;50.882;6.962;2022-09-27T00:34:18;14.23;;;2.85;;
34499;SDS011;20745;50.882;6.962;2022-09-27T00:36:49;8.18;;;2.53;;
34499;SDS011;20745;50.882;6.962;2022-09-27T00:39:17;7.60;;;2.15;;
34499;SDS011;20745;50.882;6.962;2022-09-27T00:41:44;10.20;;;2.28;;
34499;SDS011;20745;50.882;6.962;2022-09-27T00:49:50;11.70;;;2.50;;
34499;SDS011;20745;50.882;6.962;2022-09-27T00:52:42;11.80;;;3.35;;
34499;SDS011;20745;50.882;6.962;2022-09-27T00:55:15;13.50;;;3.35;;
34499;SDS011;20745;50.882;6.962;2022-09-27T00:57:49;12.30;;;3.60;;
34499;SDS011;20745;50.882;6.962;2022-09-27T01:00:17;12.80;;;3.20;;
34499;SDS011;20745;50.882;6.962;2022-09-27T01:02:45;11.05;;;3.50;;
34499;SDS011;20745;50.882;6.962;2022-09-27T01:05:15;10.77;;;3.20;;
34499;SDS011;20745;50.882;6.962;2022-09-27T01:07:45;15.10;;;3.80;;
34499;SDS011;20745;50.882;6.962;2022-09-27T01:10:11;14.57;;;3.55;;
34499;SDS011;20745;50.882;6.962;2022-09-27T01:32:06;11.50;;;2.20;;
34499;SDS011;20745;50.882;6.962;2022-09-27T01:34:47;10.00;;;2.42;;
34499;SDS011;20745;50.882;6.962;2022-09-27T01:45:53;11.52;;;3.10;;
34499;SDS011;20745;50.882;6.962;2022-09-27T01:48:25;11.45;;;2.85;;
34499;SDS011;20745;50.882;6.962;2022-09-27T01:51:07;12.93;;;2.97;;
34499;SDS011;20745;50.882;6.962;2022-09-27T01:53:40;12.37;;;3.53;;
34499;SDS011;20745;50.882;6.962;2022-09-27T01:56:12;10.70;;;3.22;;
34499;SDS011;20745;50.882;6.962;2022-09-27T01:59:17;12.30;;;3.65;;
34499;SDS011;20745;50.882;6.962;2022-09-27T02:01:49;15.38;;;5.55;;
34499;SDS011;20745;50.882;6.962;2022-09-27T02:06:52;14.07;;;3.90;;
34499;SDS011;20745;50.882;6.962;2022-09-27T02:09:26;17.27;;;4.80;;
34499;SDS011;20745;50.882;6.962;2022-09-27T02:12:01;17.13;;;5.20;;
34499;SDS011;20745;50.882;6.962;2022-09-27T02:14:44;18.38;;;5.57;;
34499;SDS011;20745;50.882;6.962;2022-09-27T02:17:29;16.10;;;4.90;;
34499;SDS011;20745;50.882;6.962;2022-09-27T02:25:54;13.07;;;4.05;;
34499;SDS011;20745;50.882;6.962;2022-09-27T02:28:32;13.05;;;4.07;;
34499;SDS011;20745;50.882;6.962;2022-09-27T02:31:19;17.52;;;4.03;;
34499;SDS011;20745;50.882;6.962;2022-09-27T02:33:46;13.55;;;3.92;;
34499;SDS011;20745;50.882;6.962;2022-09-27T02:36:17;12.80;;;4.00;;
34499;SDS011;20745;50.882;6.962;2022-09-27T02:38:45;15.73;;;4.18;;
34499;SDS011;20745;50.882;6.962;2022-09-27T02:41:15;14.23;;;4.35;;
34499;SDS011;20745;50.882;6.962;2022-09-27T02:43:43;18.13;;;4.03;;
34499;SDS011;20745;50.882;6.962;2022-09-27T02:46:21;12.48;;;3.92;;
34499;SDS011;20745;50.882;6.962;2022-09-27T03:00:37;15.05;;;4.25;;
34499;SDS011;20745;50.882;6.962;2022-09-27T03:03:15;17.42;;;3.70;;
34499;SDS011;20745;50.882;6.962;2022-09-27T03:05:48;12.95;;;3.60;;
34499;SDS011;20745;50.882;6.962;2022-09-27T03:08:19;8.55;;;3.15;;
34499;SDS011;20745;50.882;6.962;2022-09-27T03:10:46;14.25;;;3.72;;
34499;SDS011;20745;50.882;6.962;2022-09-27T03:13:13;12.13;;;2.95;;
34499;SDS011;20745;50.882;6.962;2022-09-27T03:15:40;9.80;;;2.80;;
34499;SDS011;20745;50.882;6.962;2022-09-27T03:18:06;9.32;;;2.67;;
34499;SDS011;20745;50.882;6.962;2022-09-27T03:20:33;10.20;;;2.72;;
34499;SDS011;20745;50.882;6.962;2022-09-27T03:22:59;9.93;;;2.60;;
34499;SDS011;20745;50.882;6.962;2022-09-27T03:25:26;7.45;;;2.20;;
34499;SDS011;20745;50.882;6.962;2022-09-27T03:27:52;12.65;;;2.40;;
34499;SDS011;20745;50.882;6.962;2022-09-27T03:30:19;5.15;;;1.92;;
34499;SDS011;20745;50.882;6.962;2022-09-27T03:32:45;7.97;;;1.92;;
34499;SDS011;20745;50.882;6.962;2022-09-27T03:35:12;11.63;;;2.42;;
34499;SDS011;20745;50.882;6.962;2022-09-27T03:37:39;9.18;;;2.10;;
34499;SDS011;20745;50.882;6.962;2022-09-27T03:40:06;9.77;;;2.00;;
34499;SDS011;20745;50.882;6.962;2022-09-27T03:42:33;6.57;;;1.75;;
34499;SDS011;20745;50.882;6.962;2022-09-27T03:45:00;12.23;;;2.10;;
34499;SDS011;20745;50.882;6.962;2022-09-27T03:47:27;7.65;;;2.38;;
34499;SDS011;20745;50.882;6.962;2022-09-27T03:49:53;12.82;;;2.58;;
34499;SDS011;20745;50.882;6.962;2022-09-27T03:52:20;10.82;;;2.63;;
34499;SDS011;20745;50.882;6.962;2022-09-27T03:54:46;8.48;;;2.50;;
34499;SDS011;20745;50.882;6.962;2022-09-27T03:57:13;12.52;;;2.20;;
34499;SDS011;20745;50.882;6.962;2022-09-27T03:59:39;9.77;;;2.50;;
34499;SDS011;20745;50.882;6.962;2022-09-27T04:02:06;14.35;;;3.03;;
34499;SDS011;20745;50.882;6.962;2022-09-27T04:04:32;11.32;;;3.58;;
34499;SDS011;20745;50.882;6.962;2022-09-27T04:06:59;9.02;;;2.90;;
34499;SDS011;20745;50.882;6.962;2022-09-27T04:09:25;8.68;;;2.92;;
34499;SDS011;20745;50.882;6.962;2022-09-27T04:11:52;10.90;;;3.38;;
34499;SDS011;20745;50.882;6.962;2022-09-27T04:14:18;7.90;;;2.70;;
34499;SDS011;20745;50.882;6.962;2022-09-27T04:16:45;9.93;;;2.58;;
34499;SDS011;20745;50.882;6.962;2022-09-27T04:19:11;11.88;;;2.30;;
34499;SDS011;20745;50.882;6.962;2022-09-27T04:21:38;11.98;;;2.50;;
34499;SDS011;20745;50.882;6.962;2022-09-27T04:24:05;10.60;;;2.17;;
34499;SDS011;20745;50.882;6.962;2022-09-27T04:26:31;9.95;;;2.17;;
34499;SDS011;20745;50.882;6.962;2022-09-27T04:28:58;9.23;;;2.55;;
34499;SDS011;20745;50.882;6.962;2022-09-27T04:31:24;8.73;;;2.65;;
34499;SDS011;20745;50.882;6.962;2022-09-27T04:33:51;14.43;;;2.00;;
34499;SDS011;20745;50.882;6.962;2022-09-27T04:36:19;10.88;;;1.90;;
34499;SDS011;20745;50.882;6.962;2022-09-27T04:38:58;8.95;;;1.80;;
34499;SDS011;20745;50.882;6.962;2022-09-27T04:41:26;9.90;;;2.47;;
34499;SDS011;20745;50.882;6.962;2022-09-27T04:43:54;9.25;;;2.10;;
34499;SDS011;20745;50.882;6.962;2022-09-27T04:46:24;11.05;;;1.98;;
34499;SDS011;20745;50.882;6.962;2022-09-27T04:48:51;7.32;;;1.75;;
34499;SDS011;20745;50.882;6.962;2022-09-27T04:51:18;11.88;;;1.58;;
34499;SDS011;20745;50.882;6.962;2022-09-27T04:53:45;15.98;;;2.10;;
34499;SDS011;20745;50.882;6.962;2022-09-27T04:56:12;8.80;;;1.63;;
34499;SDS011;20745;50.882;6.962;2022-09-27T04:58:41;7.15;;;1.60;;
34499;SDS011;20745;50.882;6.962;2022-09-27T05:01:07;8.07;;;1.65;;
34499;SDS011;20745;50.882;6.962;2022-09-27T05:03:34;11.18;;;1.70;;
34499;SDS011;20745;50.882;6.962;2022-09-27T05:06:01;8.98;;;1.63;;
34499;SDS011;20745;50.882;6.962;2022-09-27T05:08:27;12.55;;;1.98;;
34499;SDS011;20745;50.882;6.962;2022-09-27T05:10:54;6.93;;;1.90;;
34499;SDS011;20745;50.882;6.962;2022-09-27T05:13:21;6.65;;;1.60;;
34499;SDS011;20745;50.882;6.962;2022-09-27T05:15:47;8.45;;;1.52;;
34499;SDS011;20745;50.882;6.962;2022-09-27T05:18:14;9.50;;;1.50;;
34499;SDS011;20745;50.882;6.962;2022-09-27T05:20:40;7.85;;;1.70;;
34499;SDS011;20745;50.882;6.962;2022-09-27T05:23:07;5.60;;;1.30;;
34499;SDS011;20745;50.882;6.962;2022-09-27T05:25:33;9.00;;;1.50;;
34499;SDS011;20745;50.882;6.962;2022-09-27T05:28:00;6.47;;;1.35;;
34499;SDS011;20745;50.882;6.962;2022-09-27T05:30:27;12.00;;;1.88;;
34499;SDS011;20745;50.882;6.962;2022-09-27T05:32:54;7.40;;;1.67;;
34499;SDS011;20745;50.882;6.962;2022-09-27T05:35:21;8.13;;;1.48;;
34499;SDS011;20745;50.882;6.962;2022-09-27T05:37:52;6.05;;;1.38;;
34499;SDS011;20745;50.882;6.962;2022-09-27T05:40:19;9.73;;;1.40;;
34499;SDS011;20745;50.882;6.962;2022-09-27T05:43:06;12.20;;;1.33;;
34499;SDS011;20745;50.882;6.962;2022-09-27T05:45:33;6.40;;;1.70;;
34499;SDS011;20745;50.882;6.962;2022-09-27T05:48:00;8.85;;;1.83;;
34499;SDS011;20745;50.882;6.962;2022-09-27T05:50:27;7.50;;;1.30;;
34499;SDS011;20745;50.882;6.962;2022-09-27T05:52:53;8.98;;;1.42;;
34499;SDS011;20745;50.882;6.962;2022-09-27T05:55:20;9.30;;;1.52;;
34499;SDS011;20745;50.882;6.962;2022-09-27T05:57:53;8.68;;;1.55;;
34499;SDS011;20745;50.882;6.962;2022-09-27T06:00:25;14.48;;;2.35;;
34499;SDS011;20745;50.882;6.962;2022-09-27T06:02:56;13.43;;;2.28;;
34499;SDS011;20745;50.882;6.962;2022-09-27T06:05:25;9.43;;;1.70;;
34499;SDS011;20745;50.882;6.962;2022-09-27T06:08:00;15.98;;;1.80;;
34499;SDS011;20745;50.882;6.962;2022-09-27T06:10:29;8.25;;;1.55;;
34499;SDS011;20745;50.882;6.962;2022-09-27T06:13:03;8.50;;;1.50;;
34499;SDS011;20745;50.882;6.962;2022-09-27T06:15:33;6.38;;;1.40;;
34499;SDS011;20745;50.882;6.962;2022-09-27T06:18:02;10.83;;;1.73;;
34499;SDS011;20745;50.882;6.962;2022-09-27T06:20:30;8.93;;;1.38;;
34499;SDS011;20745;50.882;6.962;2022-09-27T06:23:03;5.45;;;1.10;;
34499;SDS011;20745;50.882;6.962;2022-09-27T06:25:32;9.45;;;1.40;;
34499;SDS011;20745;50.882;6.962;2022-09-27T06:27:59;7.40;;;1.60;;
34499;SDS011;20745;50.882;6.962;2022-09-27T06:30:26;10.68;;;1.63;;
34499;SDS011;20745;50.882;6.962;2022-09-27T06:33:00;7.75;;;1.38;;
34499;SDS011;20745;50.882;6.962;2022-09-27T06:35:28;8.23;;;1.83;;
34499;SDS011;20745;50.882;6.962;2022-09-27T06:37:55;9.43;;;1.33;;
34499;SDS011;20745;50.882;6.962;2022-09-27T06:40:21;8.48;;;1.77;;
34499;SDS011;20745;50.882;6.962;2022-09-27T06:42:52;8.20;;;1.42;;
34499;SDS011;20745;50.882;6.962;2022-09-27T06:45:18;7.13;;;1.52;;
34499;SDS011;20745;50.882;6.962;2022-09-27T06:47:45;6.53;;;1.38;;
34499;SDS011;20745;50.882;6.962;2022-09-27T06:50:12;6.30;;;1.25;;
34499;SDS011;20745;50.882;6.962;2022-09-27T06:52:45;8.57;;;1.27;;
34499;SDS011;20745;50.882;6.962;2022-09-27T06:55:13;6.45;;;1.52;;
34499;SDS011;20745;50.882;6.962;2022-09-27T06:57:40;7.30;;;1.48;;
34499;SDS011;20745;50.882;6.962;2022-09-27T07:00:25;4.85;;;1.20;;
34499;SDS011;20745;50.882;6.962;2022-09-27T07:02:55;4.90;;;1.30;;
34499;SDS011;20745;50.882;6.962;2022-09-27T07:05:26;5.95;;;1.00;;
34499;SDS011;20745;50.882;6.962;2022-09-27T07:07:57;4.70;;;1.08;;
34499;SDS011;20745;50.882;6.962;2022-09-27T07:10:24;5.47;;;0.95;;
34499;SDS011;20745;50.882;6.962;2022-09-27T07:12:52;7.30;;;1.15;;
34499;SDS011;20745;50.882;6.962;2022-09-27T07:15:22;5.25;;;1.20;;
34499;SDS011;20745;50.882;6.962;2022-09-27T07:17:55;7.10;;;1.33;;
34499;SDS011;20745;50.882;6.962;2022-09-27T07:20:23;10.30;;;1.35;;
34499;SDS011;20745;50.882;6.962;2022-09-27T07:22:51;9.25;;;1.20;;
34499;SDS011;20745;50.882;6.962;2022-09-27T07:25:18;5.88;;;1.20;;
34499;SDS011;20745;50.882;6.962;2022-09-27T07:27:45;9.40;;;1.30;;
34499;SDS011;20745;50.882;6.962;2022-09-27T07:30:11;4.80;;;1.08;;
34499;SDS011;20745;50.882;6.962;2022-09-27T07:32:38;6.53;;;1.30;;
34499;SDS011;20745;50.882;6.962;2022-09-27T07:35:05;5.18;;;1.20;;
34499;SDS011;20745;50.882;6.962;2022-09-27T07:37:34;4.22;;;1.17;;
34499;SDS011;20745;50.882;6.962;2022-09-27T07:40:03;6.78;;;1.52;;
34499;SDS011;20745;50.882;6.962;2022-09-27T07:42:34;6.22;;;1.40;;
34499;SDS011;20745;50.882;6.962;2022-09-27T07:45:09;9.02;;;1.52;;
34499;SDS011;20745;50.882;6.962;2022-09-27T07:47:39;3.08;;;1.38;;
34499;SDS011;20745;50.882;6.962;2022-09-27T07:50:08;5.70;;;1.30;;
34499;SDS011;20745;50.882;6.962;2022-09-27T07:52:41;5.47;;;1.33;;
34499;SDS011;20745;50.882;6.962;2022-09-27T07:55:09;4.30;;;1.33;;
34499;SDS011;20745;50.882;6.962;2022-09-27T07:57:37;4.28;;;1.15;;
34499;SDS011;20745;50.882;6.962;2022-09-27T08:00:04;5.88;;;1.50;;
34499;SDS011;20745;50.882;6.962;2022-09-27T08:02:33;6.20;;;1.20;;
34499;SDS011;20745;50.882;6.962;2022-09-27T08:05:00;7.30;;;1.48;;
34499;SDS011;20745;50.882;6.962;2022-09-27T08:07:27;3.80;;;1.30;;
34499;SDS011;20745;50.882;6.962;2022-09-27T08:09:55;5.43;;;1.58;;
34499;SDS011;20745;50.882;6.962;2022-09-27T08:12:21;7.53;;;1.50;;
34499;SDS011;20745;50.882;6.962;2022-09-27T08:14:48;9.10;;;1.30;;
34499;SDS011;20745;50.882;6.962;2022-09-27T08:17:15;5.75;;;1.00;;
34499;SDS011;20745;50.882;6.962;2022-09-27T08:19:44;5.65;;;1.00;;
34499;SDS011;20745;50.882;6.962;2022-09-27T08:22:13;6.97;;;1.45;;
34499;SDS011;20745;50.882;6.962;2022-09-27T08:24:39;10.60;;;2.17;;
34499;SDS011;20745;50.882;6.962;2022-09-27T08:27:06;12.30;;;2.58;;
34499;SDS011;20745;50.882;6.962;2022-09-27T08:29:37;10.93;;;2.30;;
34499;SDS011;20745;50.882;6.962;2022-09-27T08:34:33;8.75;;;1.92;;
34499;SDS011;20745;50.882;6.962;2022-09-27T08:37:00;6.38;;;1.67;;
34499;SDS011;20745;50.882;6.962;2022-09-27T08:39:27;8.85;;;1.73;;
34499;SDS011;20745;50.882;6.962;2022-09-27T08:44:31;5.70;;;1.70;;
34499;SDS011;20745;50.882;6.962;2022-09-27T08:47:15;6.90;;;1.40;;
34499;SDS011;20745;50.882;6.962;2022-09-27T08:52:31;4.22;;;1.60;;
34499;SDS011;20745;50.882;6.962;2022-09-27T08:55:03;9.27;;;1.30;;
34499;SDS011;20745;50.882;6.962;2022-09-27T08:57:39;6.07;;;1.40;;
34499;SDS011;20745;50.882;6.962;2022-09-27T09:00:07;7.95;;;1.40;;
34499;SDS011;20745;50.882;6.962;2022-09-27T09:02:37;2.38;;;0.90;;
34499;SDS011;20745;50.882;6.962;2022-09-27T09:05:07;5.07;;;1.20;;
34499;SDS011;20745;50.882;6.962;2022-09-27T09:16:31;5.13;;;1.33;;
34499;SDS011;20745;50.882;6.962;2022-09-27T09:32:44;5.88;;;1.70;;
34499;SDS011;20745;50.882;6.962;2022-09-27T09:35:18;5.03;;;1.40;;
34499;SDS011;20745;50.882;6.962;2022-09-27T09:37:54;7.93;;;1.63;;
34499;SDS011;20745;50.882;6.962;2022-09-27T09:43:02;8.43;;;1.98;;
34499;SDS011;20745;50.882;6.962;2022-09-27T09:45:30;8.77;;;1.70;;
34499;SDS011;20745;50.882;6.962;2022-09-27T09:48:09;6.55;;;1.92;;
34499;SDS011;20745;50.882;6.962;2022-09-27T09:50:57;8.88;;;2.45;;
34499;SDS011;20745;50.882;6.962;2022-09-27T09:53:38;7.38;;;2.30;;
34499;SDS011;20745;50.882;6.962;2022-09-27T09:59:16;7.05;;;2.10;;
34499;SDS011;20745;50.882;6.962;2022-09-27T10:01:49;9.90;;;1.88;;
34499;SDS011;20745;50.882;6.962;2022-09-27T10:04:22;9.15;;;1.90;;
34499;SDS011;20745;50.882;6.962;2022-09-27T10:06:51;9.32;;;2.05;;
34499;SDS011;20745;50.882;6.962;2022-09-27T10:09:21;9.13;;;2.25;;
34499;SDS011;20745;50.882;6.962;2022-09-27T10:11:50;5.85;;;1.55;;
34499;SDS011;20745;50.882;6.962;2022-09-27T10:14:17;5.43;;;1.58;;
34499;SDS011;20745;50.882;6.962;2022-09-27T10:16:46;6.10;;;1.80;;
34499;SDS011;20745;50.882;6.962;2022-09-27T10:19:16;4.05;;;1.60;;
34499;SDS011;20745;50.882;6.962;2022-09-27T10:21:51;6.80;;;1.80;;
34499;SDS011;20745;50.882;6.962;2022-09-27T10:24:18;3.83;;;1.73;;
34499;SDS011;20745;50.882;6.962;2022-09-27T10:26:46;6.32;;;1.60;;
34499;SDS011;20745;50.882;6.962;2022-09-27T10:29:33;8.48;;;2.03;;
34499;SDS011;20745;50.882;6.962;2022-09-27T10:32:03;13.90;;;1.92;;
34499;SDS011;20745;50.882;6.962;2022-09-27T10:34:46;6.50;;;1.50;;
34499;SDS011;20745;50.882;6.962;2022-09-27T10:39:44;5.30;;;1.38;;
34499;SDS011;20745;50.882;6.962;2022-09-27T10:45:26;6.50;;;1.70;;
34499;SDS011;20745;50.882;6.962;2022-09-27T10:48:17;7.55;;;1.50;;
34499;SDS011;20745;50.882;6.962;2022-09-27T10:50:56;6.35;;;1.55;;
34499;SDS011;20745;50.882;6.962;2022-09-27T10:53:25;3.88;;;1.58;;
34499;SDS011;20745;50.882;6.962;2022-09-27T10:55:54;6.72;;;1.48;;
34499;SDS011;20745;50.882;6.962;2022-09-27T11:01:14;7.00;;;2.35;;
34499;SDS011;20745;50.882;6.962;2022-09-27T11:03:49;9.70;;;2.30;;
34499;SDS011;20745;50.882;6.962;2022-09-27T11:06:23;9.57;;;2.13;;
34499;SDS011;20745;50.882;6.962;2022-09-27T11:08:54;9.27;;;1.90;;
34499;SDS011;20745;50.882;6.962;2022-09-27T11:11:34;6.38;;;1.60;;
34499;SDS011;20745;50.882;6.962;2022-09-27T11:14:05;9.13;;;1.83;;
34499;SDS011;20745;50.882;6.962;2022-09-27T11:30:01;5.07;;;1.70;;
34499;SDS011;20745;50.882;6.962;2022-09-27T11:35:36;8.57;;;2.15;;
34499;SDS011;20745;50.882;6.962;2022-09-27T11:38:30;6.45;;;2.15;;
34499;SDS011;20745;50.882;6.962;2022-09-27T11:47:54;7.68;;;2.00;;
34499;SDS011;20745;50.882;6.962;2022-09-27T11:59:58;9.65;;;2.17;;
34499;SDS011;20745;50.882;6.962;2022-09-27T12:04:43;9.75;;;2.35;;
34499;SDS011;20745;50.882;6.962;2022-09-27T12:07:35;9.38;;;2.30;;
34499;SDS011;20745;50.882;6.962;2022-09-27T12:10:08;10.80;;;2.40;;
34499;SDS011;20745;50.882;6.962;2022-09-27T12:12:39;7.05;;;1.83;;
34499;SDS011;20745;50.882;6.962;2022-09-27T12:15:14;6.55;;;1.88;;
34499;SDS011;20745;50.882;6.962;2022-09-27T12:17:47;10.05;;;2.20;;
34499;SDS011;20745;50.882;6.962;2022-09-27T12:20:24;6.90;;;2.08;;
34499;SDS011;20745;50.882;6.962;2022-09-27T12:22:57;5.40;;;1.80;;
34499;SDS011;20745;50.882;6.962;2022-09-27T12:25:28;9.38;;;2.08;;
34499;SDS011;20745;50.882;6.962;2022-09-27T12:28:00;6.90;;;2.03;;
34499;SDS011;20745;50.882;6.962;2022-09-27T12:30:34;9.00;;;2.60;;
34499;SDS011;20745;50.882;6.962;2022-09-27T12:33:12;8.02;;;2.20;;
34499;SDS011;20745;50.882;6.962;2022-09-27T12:35:52;9.23;;;2.30;;
34499;SDS011;20745;50.882;6.962;2022-09-27T12:38:34;8.65;;;2.60;;
34499;SDS011;20745;50.882;6.962;2022-09-27T12:41:07;7.43;;;2.00;;
34499;SDS011;20745;50.882;6.962;2022-09-27T12:43:39;11.48;;;2.10;;
34499;SDS011;20745;50.882;6.962;2022-09-27T12:46:21;6.45;;;1.70;;
34499;SDS011;20745;50.882;6.962;2022-09-27T12:51:25;6.95;;;1.67;;
34499;SDS011;20745;50.882;6.962;2022-09-27T12:56:42;6.50;;;2.10;;
34499;SDS011;20745;50.882;6.962;2022-09-27T13:04:50;7.25;;;2.08;;
34499;SDS011;20745;50.882;6.962;2022-09-27T13:10:49;6.40;;;1.35;;
34499;SDS011;20745;50.882;6.962;2022-09-27T13:13:29;6.60;;;1.55;;
34499;SDS011;20745;50.882;6.962;2022-09-27T13:16:02;6.28;;;1.30;;
34499;SDS011;20745;50.882;6.962;2022-09-27T13:21:04;4.97;;;1.17;;
34499;SDS011;20745;50.882;6.962;2022-09-27T13:29:24;6.50;;;1.17;;
34499;SDS011;20745;50.882;6.962;2022-09-27T13:37:36;8.60;;;1.45;;
34499;SDS011;20745;50.882;6.962;2022-09-27T13:48:01;3.55;;;0.90;;
34499;SDS011;20745;50.882;6.962;2022-09-27T13:50:47;5.20;;;0.88;;
34499;SDS011;20745;50.882;6.962;2022-09-27T13:53:19;9.18;;;1.60;;
34499;SDS011;20745;50.882;6.962;2022-09-27T13:55:55;6.78;;;0.90;;
34499;SDS011;20745;50.882;6.962;2022-09-27T14:01:27;5.32;;;0.80;;
34499;SDS011;20745;50.882;6.962;2022-09-27T14:03:59;4.85;;;1.20;;
34499;SDS011;20745;50.882;6.962;2022-09-27T14:06:33;7.57;;;1.30;;
34499;SDS011;20745;50.882;6.962;2022-09-27T14:09:07;5.35;;;1.25;;
34499;SDS011;20745;50.882;6.962;2022-09-27T14:11:43;6.53;;;1.20;;
34499;SDS011;20745;50.882;6.962;2022-09-27T14:14:18;8.10;;;1.55;;
34499;SDS011;20745;50.882;6.962;2022-09-27T14:16:49;9.15;;;1.55;;
34499;SDS011;20745;50.882;6.962;2022-09-27T14:19:17;11.38;;;1.65;;
34499;SDS011;20745;50.882;6.962;2022-09-27T14:21:53;7.70;;;1.42;;
34499;SDS011;20745;50.882;6.962;2022-09-27T14:29:47;7.78;;;1.30;;
34499;SDS011;20745;50.882;6.962;2022-09-27T14:32:26;11.15;;;1.20;;
34499;SDS011;20745;50.882;6.962;2022-09-27T14:35:12;7.20;;;1.63;;
34499;SDS011;20745;50.882;6.962;2022-09-27T14:37:59;4.43;;;1.30;;
34499;SDS011;20745;50.882;6.962;2022-09-27T14:40:57;9.70;;;1.67;;
34499;SDS011;20745;50.882;6.962;2022-09-27T14:43:25;13.45;;;1.98;;
34499;SDS011;20745;50.882;6.962;2022-09-27T14:45:56;11.43;;;1.77;;
34499;SDS011;20745;50.882;6.962;2022-09-27T14:48:27;10.75;;;1.55;;
34499;SDS011;20745;50.882;6.962;2022-09-27T14:51:03;10.20;;;1.33;;
34499;SDS011;20745;50.882;6.962;2022-09-27T14:53:45;7.65;;;1.42;;
34499;SDS011;20745;50.882;6.962;2022-09-27T14:56:19;8.00;;;1.50;;
34499;SDS011;20745;50.882;6.962;2022-09-27T14:58:49;9.20;;;1.38;;
34499;SDS011;20745;50.882;6.962;2022-09-27T15:01:21;5.25;;;1.30;;
34499;SDS011;20745;50.882;6.962;2022-09-27T15:03:48;10.10;;;1.50;;
34499;SDS011;20745;50.882;6.962;2022-09-27T15:06:16;8.18;;;1.40;;
34499;SDS011;20745;50.882;6.962;2022-09-27T15:08:42;7.45;;;1.50;;
34499;SDS011;20745;50.882;6.962;2022-09-27T15:11:12;7.10;;;1.58;;
34499;SDS011;20745;50.882;6.962;2022-09-27T15:13:39;11.80;;;1.80;;
34499;SDS011;20745;50.882;6.962;2022-09-27T15:16:09;10.35;;;1.75;;
34499;SDS011;20745;50.882;6.962;2022-09-27T15:18:44;9.00;;;1.52;;
34499;SDS011;20745;50.882;6.962;2022-09-27T15:21:14;12.10;;;1.92;;
34499;SDS011;20745;50.882;6.962;2022-09-27T15:23:52;8.93;;;1.58;;
34499;SDS011;20745;50.882;6.962;2022-09-27T15:26:21;6.32;;;1.40;;
34499;SDS011;20745;50.882;6.962;2022-09-27T15:28:52;3.40;;;1.40;;
34499;SDS011;20745;50.882;6.962;2022-09-27T15:31:28;8.63;;;1.30;;
34499;SDS011;20745;50.882;6.962;2022-09-27T15:33:56;2.80;;;0.90;;
34499;SDS011;20745;50.882;6.962;2022-09-27T15:36:48;2.45;;;0.77;;
34499;SDS011;20745;50.882;6.962;2022-09-27T15:39:15;5.40;;;1.20;;
34499;SDS011;20745;50.882;6.962;2022-09-27T15:44:36;3.88;;;1.10;;
34499;SDS011;20745;50.882;6.962;2022-09-27T15:52:48;5.53;;;1.13;;
34499;SDS011;20745;50.882;6.962;2022-09-27T15:55:23;4.30;;;1.10;;
34499;SDS011;20745;50.882;6.962;2022-09-27T15:57:52;5.63;;;1.38;;
34499;SDS011;20745;50.882;6.962;2022-09-27T16:00:24;6.60;;;1.38;;
34499;SDS011;20745;50.882;6.962;2022-09-27T16:02:51;7.82;;;1.38;;
34499;SDS011;20745;50.882;6.962;2022-09-27T16:05:19;8.38;;;1.58;;
34499;SDS011;20745;50.882;6.962;2022-09-27T16:07:46;5.85;;;1.27;;
34499;SDS011;20745;50.882;6.962;2022-09-27T16:10:16;6.53;;;1.50;;
34499;SDS011;20745;50.882;6.962;2022-09-27T16:12:43;5.60;;;1.15;;
34499;SDS011;20745;50.882;6.962;2022-09-27T16:15:11;7.15;;;1.10;;
34499;SDS011;20745;50.882;6.962;2022-09-27T16:17:39;7.38;;;1.63;;
34499;SDS011;20745;50.882;6.962;2022-09-27T16:20:09;10.87;;;1.77;;
34499;SDS011;20745;50.882;6.962;2022-09-27T16:22:42;7.13;;;1.60;;
34499;SDS011;20745;50.882;6.962;2022-09-27T16:25:09;9.65;;;1.65;;
34499;SDS011;20745;50.882;6.962;2022-09-27T16:27:35;10.25;;;1.50;;
34499;SDS011;20745;50.882;6.962;2022-09-27T16:30:02;7.18;;;1.50;;
34499;SDS011;20745;50.882;6.962;2022-09-27T16:32:28;8.82;;;1.40;;
34499;SDS011;20745;50.882;6.962;2022-09-27T16:34:55;8.82;;;1.92;;
34499;SDS011;20745;50.882;6.962;2022-09-27T16:37:22;7.30;;;1.48;;
34499;SDS011;20745;50.882;6.962;2022-09-27T16:39:48;6.25;;;1.92;;
34499;SDS011;20745;50.882;6.962;2022-09-27T16:42:15;4.88;;;1.27;;
34499;SDS011;20745;50.882;6.962;2022-09-27T16:44:59;7.32;;;1.67;;
34499;SDS011;20745;50.882;6.962;2022-09-27T16:47:42;9.02;;;1.70;;
34499;SDS011;20745;50.882;6.962;2022-09-27T16:50:09;8.15;;;1.80;;
34499;SDS011;20745;50.882;6.962;2022-09-27T16:52:56;7.70;;;1.83;;
34499;SDS011;20745;50.882;6.962;2022-09-27T16:55:25;12.10;;;2.03;;
34499;SDS011;20745;50.882;6.962;2022-09-27T16:57:56;7.30;;;1.80;;
34499;SDS011;20745;50.882;6.962;2022-09-27T17:00:23;8.88;;;2.03;;
34499;SDS011;20745;50.882;6.962;2022-09-27T17:02:50;10.65;;;1.95;;
34499;SDS011;20745;50.882;6.962;2022-09-27T17:05:18;7.93;;;1.90;;
34499;SDS011;20745;50.882;6.962;2022-09-27T17:07:48;10.75;;;2.00;;
34499;SDS011;20745;50.882;6.962;2022-09-27T17:10:15;10.32;;;2.47;;
34499;SDS011;20745;50.882;6.962;2022-09-27T17:12:42;8.88;;;2.00;;
34499;SDS011;20745;50.882;6.962;2022-09-27T17:15:09;12.40;;;2.45;;
34499;SDS011;20745;50.882;6.962;2022-09-27T17:17:35;11.45;;;2.65;;
34499;SDS011;20745;50.882;6.962;2022-09-27T17:20:02;9.93;;;2.40;;
34499;SDS011;20745;50.882;6.962;2022-09-27T17:22:30;10.98;;;2.45;;
34499;SDS011;20745;50.882;6.962;2022-09-27T17:24:56;11.00;;;2.80;;
34499;SDS011;20745;50.882;6.962;2022-09-27T17:27:23;12.15;;;2.90;;
34499;SDS011;20745;50.882;6.962;2022-09-27T17:29:52;8.38;;;2.35;;
34499;SDS011;20745;50.882;6.962;2022-09-27T17:32:19;12.32;;;2.83;;
34499;SDS011;20745;50.882;6.962;2022-09-27T17:34:47;11.98;;;3.05;;
34499;SDS011;20745;50.882;6.962;2022-09-27T17:37:13;12.90;;;3.15;;
34499;SDS011;20745;50.882;6.962;2022-09-27T17:39:40;12.80;;;3.80;;
34499;SDS011;20745;50.882;6.962;2022-09-27T17:42:06;14.07;;;4.18;;
34499;SDS011;20745;50.882;6.962;2022-09-27T17:44:33;13.73;;;3.15;;
34499;SDS011;20745;50.882;6.962;2022-09-27T17:47:00;9.70;;;2.65;;
34499;SDS011;20745;50.882;6.962;2022-09-27T17:49:45;12.52;;;3.00;;
34499;SDS011;20745;50.882;6.962;2022-09-27T17:52:31;8.93;;;2.55;;
34499;SDS011;20745;50.882;6.962;2022-09-27T17:54:59;14.50;;;3.17;;
34499;SDS011;20745;50.882;6.962;2022-09-27T17:57:25;13.77;;;3.40;;
34499;SDS011;20745;50.882;6.962;2022-09-27T17:59:52;17.63;;;6.28;;
34499;SDS011;20745;50.882;6.962;2022-09-27T18:02:18;14.20;;;4.03;;
34499;SDS011;20745;50.882;6.962;2022-09-27T18:04:45;13.80;;;5.25;;
34499;SDS011;20745;50.882;6.962;2022-09-27T18:07:12;13.23;;;5.03;;
34499;SDS011;20745;50.882;6.962;2022-09-27T18:09:38;16.83;;;5.63;;